EW4036 Toreboda SE current weather conditions

sailwx.info

Wind from 211

Air temperature 4.4° C
Dewpoint 4.0° C

Last reported at 2018-Oct-19 08:45 UTC.
Time now 2018-Oct-19 09:41 UTC

Location: N 58°41' E 014°08'.
View on Google Maps.

See reports from other nearby stations

  
Tides and Currents Weather Stations Pressure Air Temp Water Temp Dewpoint Dewpoint Depression Visibility Wind Speed Wind Dir Waves Ship Positions
date/time (UTC)wind fromknots sea level pressurealtimeterstation pressurevisibilityair tempwater tempwave heightnotes
2018-Oct-19 08:45 211 4.4
2018-Oct-19 08:30 138 3.3
2018-Oct-19 08:15 138 2.2
2018-Oct-19 08:00 138 1.7
2018-Oct-19 07:30 138 1.1
2018-Oct-19 07:15 138 0.6
2018-Oct-19 07:00 138 -0.0
2018-Oct-19 06:45 138 -0.6
2018-Oct-19 06:30 138 -0.0
2018-Oct-19 06:00 137 -0.6
2018-Oct-19 05:45 138 -0.6
2018-Oct-19 05:30 138 -0.6
2018-Oct-19 05:00 138 -0.6
2018-Oct-19 04:30 127 -0.0
2018-Oct-19 04:15 127 -0.0
2018-Oct-19 04:00 127 -0.6
2018-Oct-19 03:45 128 -0.0
2018-Oct-19 03:30 128 0.6
2018-Oct-19 03:00 121 0.6
2018-Oct-19 02:45 126 0.6
2018-Oct-19 02:30 126 -0.0
2018-Oct-19 02:00 126 -0.0
2018-Oct-19 01:30 126 -0.0
2018-Oct-19 01:00 126 0.6
2018-Oct-19 00:15 129 0.6
2018-Oct-19 00:00 129 0.6
2018-Oct-18 23:45 128 1.7
2018-Oct-18 23:30 128 1.7
2018-Oct-18 23:15 128 1.7
2018-Oct-18 23:00 128 1.7
2018-Oct-18 22:45 128 2.2
2018-Oct-18 22:15 128 2.8
2018-Oct-18 22:00 128 2.8
2018-Oct-18 21:45 128 2.8
2018-Oct-18 21:30 121 2.8
2018-Oct-18 21:15 121 2.8
2018-Oct-18 21:00 132 2.8
2018-Oct-18 20:45 132 2.8
2018-Oct-18 20:30 134 3.3
2018-Oct-18 20:15 134 3.3
2018-Oct-18 20:00 134 3.3
2018-Oct-18 19:45 134 3.9
2018-Oct-18 19:30 134 4.4
2018-Oct-18 19:15 134 4.4
2018-Oct-18 19:00 134 4.4
2018-Oct-18 18:30 134 5.0
2018-Oct-18 18:15 134 5.0
2018-Oct-18 18:00 134 5.0
2018-Oct-18 17:30 263 7.2
2018-Oct-18 17:15 263 7.2
2018-Oct-18 17:00 263 7.8
2018-Oct-18 16:30 263 7.8
2018-Oct-18 16:15 263 8.3
2018-Oct-18 16:00 263 8.9
2018-Oct-18 15:30 275 9.4
2018-Oct-18 15:15 269 3 gusting 6 10.0
2018-Oct-18 14:45 274 0 gusting 5 10.6
2018-Oct-18 14:30 288 4 gusting 6 11.1
2018-Oct-18 14:15 279 4 gusting 8 11.1
2018-Oct-18 14:00 259 5 gusting 8 11.1
2018-Oct-18 13:45 260 4 gusting 9 11.1
2018-Oct-18 13:30 265 6 gusting 10 11.1
2018-Oct-18 13:00 259 7 gusting 11 11.1
2018-Oct-18 12:45 294 6 gusting 12 11.1
2018-Oct-18 12:30 292 6 gusting 11 11.1
2018-Oct-18 12:15 284 7 gusting 11 11.1
2018-Oct-18 12:00 278 7 gusting 11 11.7
2018-Oct-18 11:45 273 6 11.1
2018-Oct-18 11:30 302 6 gusting 9 11.7
2018-Oct-18 11:15 265 4 gusting 10 11.7
2018-Oct-18 11:00 281 6 gusting 8 11.7
2018-Oct-18 10:45 299 6 gusting 10 11.1
2018-Oct-18 10:15 296 6 gusting 12 11.1
2018-Oct-18 10:00 269 6 gusting 10 11.1
2018-Oct-18 09:30 287 7 gusting 13 10.6
2018-Oct-18 09:15 294 7 gusting 12 10.6
2018-Oct-18 09:00 273 7 gusting 13 10.6
2018-Oct-18 08:45 290 5 gusting 11 10.6
2018-Oct-18 08:30 285 7 gusting 11 10.0
2018-Oct-18 08:00 279 6 gusting 10 10.0
2018-Oct-18 07:30 269 1 gusting 6 8.9
2018-Oct-18 07:15 260 0 gusting 3 8.9
2018-Oct-18 07:00 250 8.3
2018-Oct-18 06:45 269 8.3
2018-Oct-18 06:30 269 1 gusting 6 8.9
2018-Oct-18 06:15 257 8.9
2018-Oct-18 06:00 254 1 gusting 6 8.9
2018-Oct-18 05:45 257 9.4
2018-Oct-18 05:30 279 9.4
2018-Oct-18 05:15 288 10.0
2018-Oct-18 05:00 279 10.0
2018-Oct-18 04:45 235 0 gusting 7 10.6
2018-Oct-18 04:15 254 5 gusting 8 10.6
2018-Oct-18 04:00 248 5 gusting 8 11.1
2018-Oct-18 03:45 240 6 gusting 8 11.1
2018-Oct-18 03:30 237 4 gusting 7 11.1
2018-Oct-18 03:15 242 2 gusting 7 11.1
2018-Oct-18 03:00 230 11.1
2018-Oct-18 02:45 241 2 gusting 8 11.1
2018-Oct-18 02:15 240 6 gusting 10 11.1
2018-Oct-18 02:00 242 5 gusting 10 11.1
2018-Oct-18 01:30 219 3 gusting 7 11.1
2018-Oct-18 01:15 267 11.7
2018-Oct-18 01:00 271 11.7
2018-Oct-18 00:45 259 11.7
2018-Oct-18 00:30 243 2 gusting 6 12.2
2018-Oct-18 00:15 246 4 gusting 6 12.2
2018-Oct-18 00:00 252 6 gusting 9 12.8
2018-Oct-17 23:45 261 5 gusting 8 12.8
2018-Oct-17 23:30 261 6 gusting 8 12.8
2018-Oct-17 23:15 258 3 gusting 9 13.3
2018-Oct-17 23:00 244 6 gusting 11 13.3
2018-Oct-17 22:30 223 2 gusting 8 13.3
2018-Oct-17 22:15 232 4 gusting 8 13.3
2018-Oct-17 22:00 192 3 gusting 7 13.3
2018-Oct-17 21:30 194 2 gusting 7 13.3
2018-Oct-17 21:00 203 2 gusting 6 13.3
2018-Oct-17 20:45 216 3 gusting 8 13.3
2018-Oct-17 20:30 202 5 gusting 7 13.3
2018-Oct-17 20:15 188 4 gusting 7 13.9
2018-Oct-17 20:00 216 4 gusting 6 13.9
2018-Oct-17 19:45 204 5 gusting 8 13.9
2018-Oct-17 19:30 170 6 gusting 8 13.9
2018-Oct-17 19:15 212 6 gusting 11 13.9
2018-Oct-17 19:00 190 6 gusting 9 13.9
2018-Oct-17 18:15 144 12.2
2018-Oct-17 18:00 130 12.8
2018-Oct-17 17:45 126 12.8
2018-Oct-17 17:30 150 13.3
2018-Oct-17 17:00 142 13.3
2018-Oct-17 16:45 130 13.9
2018-Oct-17 16:30 152 13.9
2018-Oct-17 16:15 146 14.4
2018-Oct-17 16:00 143 14.4
2018-Oct-17 15:45 144 14.4
2018-Oct-17 15:30 146 15.0
2018-Oct-17 15:15 167 15.0
2018-Oct-17 15:00 158 15.6
2018-Oct-17 14:45 146 16.7
2018-Oct-17 14:15 188 0 gusting 4 16.7
2018-Oct-17 14:00 204 0 gusting 8 17.2
2018-Oct-17 13:30 221 2 gusting 6 17.2
2018-Oct-17 13:15 211 5 gusting 7 17.2
2018-Oct-17 13:00 200 4 gusting 9 17.2
2018-Oct-17 12:30 245 2 gusting 5 17.8
2018-Oct-17 12:00 182 17.2
2018-Oct-17 11:30 195 16.7
2018-Oct-17 11:15 165 4 gusting 6 16.1
2018-Oct-17 11:00 176 3 gusting 7 15.6
2018-Oct-17 10:30 186 15.0
2018-Oct-17 10:15 178 14.4
2018-Oct-17 10:00 184 2 gusting 6 14.4
2018-Oct-17 09:45 178 4 gusting 8 13.9
2018-Oct-17 09:30 212 4 gusting 7 13.9
2018-Oct-17 09:15 196 3 gusting 9 13.9
2018-Oct-17 09:00 184 3 gusting 7 13.3